TimeEDT,TemperatureF,Dew PointF,Humidity,Sea Level PressureIn,VisibilityMPH,Wind Direction,Wind SpeedMPH,Gust SpeedMPH,PrecipitationIn,Events,Conditions,WindDirDegrees,DateUTC
12:53 AM,43.0,42.1,97,29.85,10.0,West,6.9,-,N/A,,Clear,270,2012-10-01 04:53:00
1:53 AM,44.1,42.1,93,29.85,10.0,WNW,5.8,-,N/A,,Clear,290,2012-10-01 05:53:00
2:53 AM,44.1,42.1,93,29.84,10.0,West,10.4,-,N/A,,Clear,270,2012-10-01 06:53:00
3:53 AM,44.1,43.0,96,29.84,10.0,West,9.2,-,N/A,,Clear,280,2012-10-01 07:53:00
4:12 AM,44.6,42.8,93,29.83,9.0,West,11.5,-,N/A,,Scattered Clouds,270,2012-10-01 08:12:00
4:21 AM,44.6,42.8,93,29.83,8.0,West,12.7,-,N/A,,Mostly Cloudy,270,2012-10-01 08:21:00
4:53 AM,45.0,43.0,93,29.85,10.0,West,12.7,-,N/A,,Mostly Cloudy,270,2012-10-01 08:53:00
5:14 AM,44.6,42.8,93,29.84,10.0,West,10.4,-,N/A,,Scattered Clouds,280,2012-10-01 09:14:00
5:26 AM,44.6,42.8,93,29.84,10.0,West,10.4,-,N/A,,Mostly Cloudy,280,2012-10-01 09:26:00
5:36 AM,44.6,42.8,93,29.84,10.0,West,10.4,-,N/A,,Scattered Clouds,270,2012-10-01 09:36:00
6:15 AM,44.6,42.8,93,29.85,9.0,West,12.7,19.6,N/A,,Mostly Cloudy,280,2012-10-01 10:15:00
6:53 AM,45.0,43.0,93,29.88,10.0,West,16.1,-,N/A,,Overcast,270,2012-10-01 10:53:00
7:45 AM,46.4,42.8,87,29.87,10.0,WNW,15.0,21.9,N/A,,Partly Cloudy,290,2012-10-01 11:45:00
7:53 AM,46.0,43.0,89,29.89,10.0,WNW,15.0,21.9,N/A,,Partly Cloudy,300,2012-10-01 11:53:00
8:53 AM,50.0,45.0,83,29.90,10.0,WNW,11.5,19.6,N/A,,Partly Cloudy,290,2012-10-01 12:53:00
9:34 AM,51.8,44.6,76,29.90,10.0,West,11.5,19.6,N/A,,Mostly Cloudy,280,2012-10-01 13:34:00
9:53 AM,52.0,44.1,74,29.92,10.0,WNW,15.0,24.2,N/A,,Overcast,290,2012-10-01 13:53:00
11:53 AM,55.9,44.1,64,29.94,10.0,NW,16.1,23.0,N/A,,Mostly Cloudy,310,2012-10-01 15:53:00
12:11 PM,57.2,44.6,63,29.91,10.0,NW,13.8,24.2,N/A,,Scattered Clouds,310,2012-10-01 16:11:00
12:53 PM,59.0,45.0,60,29.93,10.0,WNW,12.7,-,N/A,,Clear,290,2012-10-01 16:53:00
2:53 PM,62.1,46.9,58,29.92,10.0,WNW,8.1,-,N/A,,Clear,290,2012-10-01 18:53:00
3:53 PM,63.0,46.9,56,29.92,10.0,NW,8.1,-,N/A,,Clear,310,2012-10-01 19:53:00
4:53 PM,63.0,46.9,56,29.93,10.0,WNW,8.1,-,N/A,,Clear,300,2012-10-01 20:53:00
5:53 PM,61.0,46.9,60,29.94,10.0,West,5.8,-,N/A,,Clear,280,2012-10-01 21:53:00
6:53 PM,55.0,46.9,74,29.97,10.0,WSW,3.5,-,N/A,,Clear,240,2012-10-01 22:53:00
7:53 PM,52.0,48.0,86,29.99,10.0,Calm,Calm,-,N/A,,Clear,0,2012-10-01 23:53:00
8:53 PM,50.0,46.9,89,30.00,10.0,Calm,Calm,-,N/A,,Clear,0,2012-10-02 00:53:00
9:53 PM,51.1,48.9,92,29.99,10.0,Calm,Calm,-,N/A,,Clear,0,2012-10-02 01:53:00
11:53 PM,52.0,48.9,89,29.99,10.0,Calm,Calm,-,N/A,,Overcast,0,2012-10-02 03:53:00